createdAt,value
2023-01-08T00:01:31.605Z,11.48
2023-01-08T00:03:59.791Z,11.55
2023-01-08T00:06:27.968Z,11.73
2023-01-08T00:08:56.184Z,11.15
2023-01-08T00:11:25.872Z,11.25
2023-01-08T00:13:54.008Z,11.70
2023-01-08T00:16:22.290Z,10.38
2023-01-08T00:18:53.636Z,11.00
2023-01-08T00:21:21.928Z,10.68
2023-01-08T00:23:50.025Z,12.15
2023-01-08T00:26:18.176Z,11.00
2023-01-08T00:28:47.888Z,11.52
2023-01-08T00:31:16.176Z,11.00
2023-01-08T00:33:44.380Z,12.07
2023-01-08T00:36:15.160Z,11.73
2023-01-08T00:38:43.865Z,11.73
2023-01-08T00:41:13.304Z,12.25
2023-01-08T00:43:41.879Z,12.63
2023-01-08T00:46:11.506Z,11.23
2023-01-08T00:48:39.618Z,12.23
2023-01-08T00:51:08.695Z,11.27
2023-01-08T00:53:38.037Z,11.43
2023-01-08T00:56:08.455Z,12.00
2023-01-08T00:58:38.162Z,10.60
2023-01-08T01:01:12.948Z,11.40
2023-01-08T01:03:41.725Z,11.27
2023-01-08T01:06:10.195Z,10.80
2023-01-08T01:08:38.461Z,11.10
2023-01-08T01:11:10.411Z,11.70
2023-01-08T01:13:38.655Z,11.63
2023-01-08T01:16:07.229Z,12.65
2023-01-08T01:18:36.659Z,12.05
2023-01-08T01:21:11.488Z,11.73
2023-01-08T01:23:39.670Z,13.13
2023-01-08T01:26:07.791Z,12.55
2023-01-08T01:28:36.234Z,11.35
2023-01-08T01:31:04.574Z,11.70
2023-01-08T01:33:32.737Z,10.75
2023-01-08T01:36:05.017Z,11.35
2023-01-08T01:38:33.469Z,11.20
2023-01-08T01:41:01.672Z,11.27
2023-01-08T01:43:40.583Z,11.32
2023-01-08T01:46:21.095Z,11.98
2023-01-08T01:48:53.055Z,11.98
2023-01-08T01:51:23.268Z,10.65
2023-01-08T01:53:51.506Z,11.43
2023-01-08T01:56:19.660Z,10.60
2023-01-08T01:58:47.768Z,10.93
2023-01-08T02:01:16.666Z,11.38
2023-01-08T02:03:44.835Z,12.93
2023-01-08T02:06:21.412Z,11.23
2023-01-08T02:08:58.549Z,10.75
2023-01-08T02:11:32.949Z,11.35
2023-01-08T02:14:12.514Z,11.85
2023-01-08T02:16:47.183Z,11.05
2023-01-08T02:19:34.303Z,11.40
2023-01-08T02:22:13.003Z,10.93
2023-01-08T02:24:52.652Z,10.95
2023-01-08T02:27:25.315Z,12.10
2023-01-08T02:29:54.848Z,11.57
2023-01-08T02:32:26.695Z,10.10
2023-01-08T02:34:55.531Z,10.35
2023-01-08T02:37:23.728Z,11.25
2023-01-08T02:40:04.749Z,11.65
2023-01-08T02:42:43.812Z,12.07
2023-01-08T02:45:22.507Z,10.90
2023-01-08T02:47:54.733Z,10.73
2023-01-08T02:50:27.394Z,11.95
2023-01-08T02:53:02.109Z,11.15
2023-01-08T02:55:31.971Z,11.70
2023-01-08T02:58:02.022Z,10.73
2023-01-08T03:00:30.925Z,11.07
2023-01-08T03:03:06.639Z,11.63
2023-01-08T03:05:35.460Z,12.00
2023-01-08T03:08:03.875Z,11.35
2023-01-08T03:10:33.595Z,10.73
2023-01-08T03:13:07.333Z,11.60
2023-01-08T03:15:41.112Z,11.73
2023-01-08T03:18:14.222Z,11.43
2023-01-08T03:20:42.683Z,10.15
2023-01-08T03:23:13.647Z,13.10
2023-01-08T03:25:45.358Z,10.45
2023-01-08T03:28:20.699Z,11.65
2023-01-08T03:30:51.472Z,11.32
2023-01-08T03:33:21.409Z,11.55
2023-01-08T03:35:52.801Z,11.65
2023-01-08T03:38:25.547Z,11.82
2023-01-08T03:40:57.336Z,11.48
2023-01-08T03:43:28.229Z,11.43
2023-01-08T03:46:00.165Z,10.60
2023-01-08T03:48:31.420Z,12.40
2023-01-08T03:51:00.259Z,11.55
2023-01-08T03:53:29.371Z,12.00
2023-01-08T03:55:58.801Z,11.52
2023-01-08T03:58:28.296Z,11.45
2023-01-08T04:00:56.372Z,11.15
2023-01-08T04:03:25.215Z,11.88
2023-01-08T04:05:53.459Z,12.57
2023-01-08T04:08:21.732Z,12.07
2023-01-08T04:10:49.831Z,11.50
2023-01-08T04:13:18.021Z,11.77
2023-01-08T04:15:50.359Z,11.30
2023-01-08T04:18:18.963Z,11.57
2023-01-08T04:20:47.743Z,12.15
2023-01-08T04:23:16.570Z,11.50
2023-01-08T04:25:44.884Z,12.77
2023-01-08T04:28:12.975Z,11.00
2023-01-08T04:30:41.277Z,12.05
2023-01-08T04:33:10.829Z,11.48
2023-01-08T04:35:39.014Z,11.45
2023-01-08T04:38:07.140Z,10.32
2023-01-08T04:40:35.566Z,11.05
2023-01-08T04:43:03.652Z,9.60
2023-01-08T04:45:31.697Z,9.57
2023-01-08T04:48:00.514Z,9.18
2023-01-08T04:50:29.968Z,9.25
2023-01-08T04:52:59.809Z,9.77
2023-01-08T04:55:27.855Z,9.38
2023-01-08T04:57:56.152Z,8.95
2023-01-08T05:00:24.166Z,9.18
2023-01-08T05:02:52.425Z,8.80
2023-01-08T05:05:20.614Z,9.32
2023-01-08T05:07:50.324Z,9.50
2023-01-08T05:10:18.844Z,8.32
2023-01-08T05:12:46.959Z,8.13
2023-01-08T05:15:15.123Z,8.90
2023-01-08T05:17:43.224Z,8.30
2023-01-08T05:20:11.987Z,8.50
2023-01-08T05:22:40.101Z,8.63
2023-01-08T05:25:10.297Z,8.80
2023-01-08T05:27:38.456Z,8.80
2023-01-08T05:30:08.303Z,8.45
2023-01-08T05:32:36.516Z,8.05
2023-01-08T05:35:05.006Z,8.50
2023-01-08T05:37:35.498Z,8.55
2023-01-08T05:40:03.660Z,8.27
2023-01-08T05:42:34.893Z,8.90
2023-01-08T05:45:02.986Z,8.43
2023-01-08T05:47:32.495Z,8.27
2023-01-08T05:50:00.628Z,8.40
2023-01-08T05:52:29.480Z,8.27
2023-01-08T05:54:57.574Z,8.70
2023-01-08T05:57:25.664Z,8.75
2023-01-08T05:59:55.212Z,8.82
2023-01-08T06:02:23.271Z,8.80
2023-01-08T06:04:51.390Z,8.50
2023-01-08T06:07:19.495Z,8.88
2023-01-08T06:09:47.851Z,8.70
2023-01-08T06:12:15.928Z,8.90
2023-01-08T06:14:43.955Z,9.15
2023-01-08T06:17:14.928Z,8.68
2023-01-08T06:19:43.110Z,8.98
2023-01-08T06:22:11.297Z,10.00
2023-01-08T06:24:39.372Z,8.98
2023-01-08T06:27:07.423Z,8.82
2023-01-08T06:29:35.731Z,9.73
2023-01-08T06:32:03.864Z,9.68
2023-01-08T06:34:33.295Z,9.00
2023-01-08T06:37:01.434Z,9.73
2023-01-08T06:39:29.717Z,8.85
2023-01-08T06:41:57.853Z,9.85
2023-01-08T06:44:25.989Z,9.93
2023-01-08T06:46:54.183Z,8.88
2023-01-08T06:49:23.049Z,10.05
2023-01-08T06:51:52.450Z,8.95
2023-01-08T06:54:20.664Z,9.15
2023-01-08T06:56:54.103Z,9.55
2023-01-08T06:59:22.725Z,9.65
2023-01-08T07:01:51.510Z,9.52
2023-01-08T07:04:19.959Z,9.25
2023-01-08T07:06:48.271Z,9.93
2023-01-08T07:09:17.776Z,9.10
2023-01-08T07:11:45.885Z,9.80
2023-01-08T07:14:14.018Z,10.27
2023-01-08T07:16:42.033Z,9.70
2023-01-08T07:19:10.606Z,9.70
2023-01-08T07:21:38.699Z,10.50
2023-01-08T07:24:08.859Z,10.20
2023-01-08T07:26:39.655Z,10.02
2023-01-08T07:29:08.122Z,9.82
2023-01-08T07:31:36.316Z,9.98
2023-01-08T07:34:04.520Z,10.18
2023-01-08T07:36:32.706Z,10.38
2023-01-08T07:39:00.999Z,10.85
2023-01-08T07:41:29.167Z,9.45
2023-01-08T07:43:58.935Z,11.50
2023-01-08T07:46:27.048Z,9.93
2023-01-08T07:48:56.771Z,9.88
2023-01-08T07:51:25.100Z,10.98
2023-01-08T07:53:53.280Z,10.10
2023-01-08T07:56:21.421Z,10.27
2023-01-08T07:58:49.526Z,10.23
2023-01-08T08:01:19.589Z,10.27
2023-01-08T08:03:47.733Z,10.20
2023-01-08T08:06:15.831Z,9.48
2023-01-08T08:08:44.153Z,9.95
2023-01-08T08:11:12.298Z,9.80
2023-01-08T08:13:42.680Z,10.82
2023-01-08T08:16:10.854Z,10.95
2023-01-08T08:18:40.478Z,10.18
2023-01-08T08:21:08.932Z,11.18
2023-01-08T08:23:37.136Z,10.48
2023-01-08T08:26:05.572Z,10.32
2023-01-08T08:28:33.697Z,10.57
2023-01-08T08:31:01.978Z,10.60
2023-01-08T08:33:30.068Z,10.40
2023-01-08T08:35:59.522Z,10.98
2023-01-08T08:38:28.341Z,10.60
2023-01-08T08:40:56.541Z,10.32
2023-01-08T08:43:24.660Z,10.10
2023-01-08T08:45:52.725Z,9.80
2023-01-08T08:48:20.778Z,10.90
2023-01-08T08:50:48.891Z,9.90
2023-01-08T08:53:18.385Z,9.52
2023-01-08T08:55:46.525Z,11.18
2023-01-08T08:58:15.022Z,10.15
2023-01-08T09:00:44.514Z,9.88
2023-01-08T09:03:15.146Z,10.02
2023-01-08T09:05:44.043Z,10.10
2023-01-08T09:08:13.589Z,11.05
2023-01-08T09:10:43.652Z,10.38
2023-01-08T09:13:12.437Z,10.10
2023-01-08T09:15:40.568Z,9.70
2023-01-08T09:18:08.846Z,10.13
2023-01-08T09:20:37.411Z,10.95
2023-01-08T09:23:07.084Z,10.98
2023-01-08T09:25:35.317Z,9.68
2023-01-08T09:28:06.773Z,9.48
2023-01-08T09:30:35.455Z,10.35
2023-01-08T09:33:04.844Z,9.23
2023-01-08T09:35:33.692Z,9.73
2023-01-08T09:38:02.018Z,9.13
2023-01-08T09:40:44.140Z,10.02
2023-01-08T09:43:18.600Z,9.70
2023-01-08T09:45:52.044Z,9.52
2023-01-08T09:48:24.935Z,9.57
2023-01-08T09:50:53.384Z,8.93
2023-01-08T09:53:21.938Z,9.35
2023-01-08T09:56:09.130Z,9.50
2023-01-08T09:58:42.891Z,10.00
2023-01-08T10:01:14.251Z,9.80
2023-01-08T10:03:44.705Z,10.02
2023-01-08T10:06:15.529Z,9.23
2023-01-08T10:11:17.388Z,9.38
2023-01-08T10:13:51.267Z,9.88
2023-01-08T10:16:27.758Z,9.68
2023-01-08T10:18:55.902Z,10.05
2023-01-08T10:21:30.513Z,9.88
2023-01-08T10:23:58.681Z,9.55
2023-01-08T10:26:29.276Z,9.20
2023-01-08T10:29:14.229Z,9.20
2023-01-08T10:31:48.530Z,9.93
2023-01-08T10:34:28.397Z,8.98
2023-01-08T10:36:57.379Z,9.32
2023-01-08T10:39:27.753Z,8.93
2023-01-08T10:41:59.620Z,9.52
2023-01-08T10:44:29.265Z,9.68
2023-01-08T10:47:01.328Z,9.50
2023-01-08T10:49:33.489Z,8.68
2023-01-08T10:52:02.152Z,9.30
2023-01-08T10:54:36.576Z,10.32
2023-01-08T10:57:20.196Z,10.73
2023-01-08T10:59:49.873Z,10.35
2023-01-08T11:02:25.768Z,10.35
2023-01-08T11:04:54.334Z,9.52
2023-01-08T11:07:25.023Z,9.93
2023-01-08T11:09:54.021Z,10.88
2023-01-08T11:12:34.083Z,9.52
2023-01-08T11:15:04.745Z,10.18
2023-01-08T11:17:34.701Z,8.88
2023-01-08T11:20:19.878Z,9.10
2023-01-08T11:22:48.024Z,10.00
2023-01-08T11:25:24.139Z,10.18
2023-01-08T11:27:56.484Z,9.02
2023-01-08T11:30:32.321Z,8.77
2023-01-08T11:33:05.930Z,8.98
2023-01-08T11:35:38.801Z,9.18
2023-01-08T11:38:08.366Z,9.02
2023-01-08T11:40:43.242Z,9.10
2023-01-08T11:43:26.383Z,9.38
2023-01-08T11:46:18.839Z,8.52
2023-01-08T11:49:16.181Z,9.05
2023-01-08T11:51:53.458Z,8.98
2023-01-08T11:54:37.926Z,9.68
2023-01-08T11:57:26.197Z,9.63
2023-01-08T12:00:14.387Z,9.90
2023-01-08T12:02:56.140Z,9.38
2023-01-08T12:05:29.149Z,10.13
2023-01-08T12:08:03.781Z,9.18
2023-01-08T12:10:41.519Z,9.70
2023-01-08T12:13:26.155Z,8.85
2023-01-08T12:16:06.651Z,9.20
2023-01-08T12:18:55.848Z,9.20
2023-01-08T12:21:32.463Z,8.98
2023-01-08T12:24:16.540Z,10.05
2023-01-08T12:26:55.430Z,9.13
2023-01-08T12:29:40.220Z,9.18
2023-01-08T12:32:21.826Z,10.10
2023-01-08T12:35:00.827Z,9.93
2023-01-08T12:37:35.857Z,9.88
2023-01-08T12:40:13.513Z,9.35
2023-01-08T12:42:50.213Z,10.05
2023-01-08T12:45:28.380Z,8.88
2023-01-08T12:48:00.167Z,9.48
2023-01-08T12:50:40.565Z,10.23
2023-01-08T12:53:15.342Z,9.48
2023-01-08T12:55:47.458Z,10.45
2023-01-08T12:58:27.823Z,9.80
2023-01-08T13:01:02.092Z,9.70
2023-01-08T13:03:33.787Z,9.52
2023-01-08T13:06:15.559Z,11.13
2023-01-08T13:08:49.613Z,10.40
2023-01-08T13:11:27.355Z,10.45
2023-01-08T13:14:04.856Z,9.75
2023-01-08T13:16:40.564Z,10.02
2023-01-08T13:19:24.738Z,10.00
2023-01-08T13:21:57.136Z,11.25
2023-01-08T13:24:30.606Z,10.20
2023-01-08T13:27:10.694Z,10.73
2023-01-08T13:29:42.725Z,10.93
2023-01-08T13:32:37.165Z,10.60
2023-01-08T13:35:24.929Z,10.18
2023-01-08T13:38:14.013Z,10.05
2023-01-08T13:41:01.287Z,10.98
2023-01-08T13:43:32.118Z,10.65
2023-01-08T13:46:09.981Z,12.18
2023-01-08T13:48:40.478Z,10.75
2023-01-08T13:51:30.960Z,10.73
2023-01-08T13:54:07.921Z,10.20
2023-01-08T13:56:36.291Z,11.25
2023-01-08T13:59:06.571Z,10.30
2023-01-08T14:01:35.003Z,10.00
2023-01-08T14:04:03.452Z,10.65
2023-01-08T14:06:34.928Z,10.05
2023-01-08T14:09:06.072Z,9.65
2023-01-08T14:11:42.901Z,9.88
2023-01-08T14:14:13.876Z,9.57
2023-01-08T14:16:42.649Z,10.05
2023-01-08T14:19:18.403Z,9.93
2023-01-08T14:21:48.892Z,10.77
2023-01-08T14:24:20.074Z,10.45
2023-01-08T14:26:53.545Z,9.63
2023-01-08T14:29:23.236Z,9.90
2023-01-08T14:31:53.857Z,10.02
2023-01-08T14:34:23.697Z,10.75
2023-01-08T14:36:56.096Z,9.38
2023-01-08T14:39:33.056Z,10.17
2023-01-08T14:42:24.421Z,10.05
2023-01-08T14:44:55.672Z,10.23
2023-01-08T14:47:30.856Z,11.50
2023-01-08T14:49:59.130Z,11.68
2023-01-08T14:52:27.423Z,12.07
2023-01-08T14:55:00.930Z,11.35
2023-01-08T14:57:29.920Z,11.80
2023-01-08T14:59:59.500Z,11.88
2023-01-08T15:02:30.309Z,11.73
2023-01-08T15:05:15.806Z,11.50
2023-01-08T15:07:46.084Z,11.98
2023-01-08T15:10:36.024Z,11.20
2023-01-08T15:13:07.593Z,10.90
2023-01-08T15:15:42.771Z,11.60
2023-01-08T15:18:13.381Z,10.75
2023-01-08T15:20:45.358Z,11.60
2023-01-08T15:23:27.685Z,11.77
2023-01-08T15:26:00.117Z,11.80
2023-01-08T15:28:28.221Z,11.53
2023-01-08T15:30:58.507Z,12.25
2023-01-08T15:33:27.537Z,11.80
2023-01-08T15:35:55.795Z,12.00
2023-01-08T15:38:24.122Z,12.82
2023-01-08T15:40:53.331Z,12.48
2023-01-08T15:43:21.942Z,12.85
2023-01-08T15:45:51.324Z,14.10
2023-01-08T15:48:19.445Z,13.15
2023-01-08T15:50:47.816Z,13.05
2023-01-08T15:53:19.359Z,13.60
2023-01-08T15:55:47.658Z,13.80
2023-01-08T15:58:17.404Z,12.82
2023-01-08T16:00:47.978Z,13.23
2023-01-08T16:03:17.387Z,14.40
2023-01-08T16:05:45.689Z,13.80
2023-01-08T16:08:13.784Z,13.70
2023-01-08T16:10:42.044Z,13.65
2023-01-08T16:13:11.986Z,13.63
2023-01-08T16:15:40.870Z,13.55
2023-01-08T16:18:10.556Z,12.30
2023-01-08T16:20:39.495Z,13.02
2023-01-08T16:23:07.617Z,14.63
2023-01-08T16:25:35.833Z,14.43
2023-01-08T16:28:04.266Z,14.30
2023-01-08T16:30:32.544Z,15.13
2023-01-08T16:33:00.833Z,13.82
2023-01-08T16:35:30.351Z,13.32
2023-01-08T16:37:58.854Z,13.93
2023-01-08T16:40:27.179Z,14.32
2023-01-08T16:43:00.927Z,14.30
2023-01-08T16:45:29.231Z,13.50
2023-01-08T16:47:57.630Z,13.20
2023-01-08T16:50:25.861Z,13.52
2023-01-08T16:52:57.512Z,13.30
2023-01-08T16:55:25.743Z,14.20
2023-01-08T16:57:55.542Z,13.50
2023-01-08T17:00:24.367Z,13.85
2023-01-08T17:02:52.465Z,13.35
2023-01-08T17:05:20.889Z,13.10
2023-01-08T17:07:52.112Z,13.10
2023-01-08T17:10:23.833Z,12.05
2023-01-08T17:12:52.234Z,13.32
2023-01-08T17:15:20.479Z,12.18
2023-01-08T17:17:48.863Z,11.60
2023-01-08T17:20:19.741Z,11.63
2023-01-08T17:22:47.937Z,12.43
2023-01-08T17:25:16.242Z,11.43
2023-01-08T17:27:45.752Z,11.85
2023-01-08T17:30:14.964Z,11.75
2023-01-08T17:32:43.605Z,11.52
2023-01-08T17:35:11.798Z,11.25
2023-01-08T17:37:40.033Z,11.82
2023-01-08T17:40:10.984Z,11.20
2023-01-08T17:42:39.359Z,10.32
2023-01-08T17:45:10.367Z,11.02
2023-01-08T17:47:39.117Z,11.23
2023-01-08T17:50:07.823Z,11.38
2023-01-08T17:52:37.858Z,10.63
2023-01-08T17:55:06.890Z,11.05
2023-01-08T17:57:35.317Z,10.10
2023-01-08T18:00:03.529Z,10.15
2023-01-08T18:02:34.499Z,10.70
2023-01-08T18:05:02.981Z,10.48
2023-01-08T18:07:34.462Z,10.13
2023-01-08T18:10:02.727Z,9.57
2023-01-08T18:12:32.440Z,10.18
2023-01-08T18:15:00.607Z,10.63
2023-01-08T18:17:30.851Z,10.10
2023-01-08T18:20:00.803Z,9.82
2023-01-08T18:22:29.150Z,9.82
2023-01-08T18:24:57.421Z,9.18
2023-01-08T18:27:25.575Z,9.85
2023-01-08T18:29:54.770Z,9.70
2023-01-08T18:32:26.027Z,10.02
2023-01-08T18:34:55.379Z,9.98
2023-01-08T18:37:25.242Z,9.52
2023-01-08T18:39:53.751Z,9.57
2023-01-08T18:42:28.163Z,9.98
2023-01-08T18:44:57.182Z,9.68
2023-01-08T18:47:27.712Z,10.68
2023-01-08T18:49:59.141Z,9.15
2023-01-08T18:52:28.631Z,10.27
2023-01-08T18:54:57.667Z,9.93
2023-01-08T18:57:26.893Z,9.82
2023-01-08T18:59:55.502Z,10.23
2023-01-08T19:02:27.193Z,10.20
2023-01-08T19:04:56.199Z,10.00
2023-01-08T19:07:24.302Z,10.00
2023-01-08T19:09:54.104Z,9.80
2023-01-08T19:12:22.395Z,10.43
2023-01-08T19:14:50.824Z,10.38
2023-01-08T19:17:19.157Z,10.93
2023-01-08T19:19:47.664Z,10.65
2023-01-08T19:22:16.450Z,9.85
2023-01-08T19:24:44.528Z,10.10
2023-01-08T19:27:14.019Z,10.45
2023-01-08T19:29:42.972Z,9.80
2023-01-08T19:32:11.284Z,10.75
2023-01-08T19:34:39.693Z,10.85
2023-01-08T19:37:08.288Z,13.50
2023-01-08T19:39:36.723Z,14.20
2023-01-08T19:42:22.801Z,13.90
2023-01-08T19:44:52.256Z,13.68
2023-01-08T19:47:21.758Z,14.45
2023-01-08T19:49:50.260Z,13.48
2023-01-08T19:52:19.377Z,12.70
2023-01-08T19:54:48.686Z,11.88
2023-01-08T19:57:16.957Z,11.80
2023-01-08T19:59:45.221Z,11.30
2023-01-08T20:02:14.980Z,10.63
2023-01-08T20:04:44.087Z,11.02
2023-01-08T20:07:13.363Z,11.38
2023-01-08T20:09:42.642Z,10.90
2023-01-08T20:12:11.470Z,10.68
2023-01-08T20:14:39.810Z,9.88
2023-01-08T20:17:11.774Z,10.10
2023-01-08T20:19:41.812Z,10.15
2023-01-08T20:22:10.254Z,9.43
2023-01-08T20:24:39.130Z,9.70
2023-01-08T20:27:07.966Z,9.40
2023-01-08T20:29:36.658Z,8.80
2023-01-08T20:32:06.024Z,8.82
2023-01-08T20:34:34.500Z,8.60
2023-01-08T20:37:07.335Z,8.75
2023-01-08T20:39:35.679Z,8.32
2023-01-08T20:42:05.136Z,8.02
2023-01-08T20:44:34.325Z,8.55
2023-01-08T20:47:03.020Z,7.90
2023-01-08T20:49:31.537Z,7.55
2023-01-08T20:52:00.651Z,8.13
2023-01-08T20:54:31.467Z,8.30
2023-01-08T20:57:01.495Z,8.38
2023-01-08T20:59:30.535Z,7.78
2023-01-08T21:01:58.935Z,7.70
2023-01-08T21:04:27.508Z,7.82
2023-01-08T21:06:55.806Z,7.63
2023-01-08T21:09:24.301Z,7.35
2023-01-08T21:11:53.910Z,8.10
2023-01-08T21:14:22.188Z,7.30
2023-01-08T21:16:50.381Z,7.80
2023-01-08T21:19:18.665Z,7.50
2023-01-08T21:21:47.093Z,7.50
2023-01-08T21:24:16.043Z,7.20
2023-01-08T21:26:45.889Z,7.60
2023-01-08T21:29:17.004Z,7.53
2023-01-08T21:31:45.404Z,7.60
2023-01-08T21:34:13.913Z,7.45
2023-01-08T21:36:42.266Z,7.22
2023-01-08T21:39:11.405Z,7.82
2023-01-08T21:41:57.184Z,7.22
2023-01-08T21:44:44.744Z,7.85
2023-01-08T21:47:17.889Z,6.82
2023-01-08T21:52:32.363Z,8.65
2023-01-08T21:55:00.578Z,8.50
2023-01-08T21:57:29.201Z,8.65
2023-01-08T21:59:58.663Z,8.85
2023-01-08T22:02:26.935Z,7.68
2023-01-08T22:04:55.855Z,7.90
2023-01-08T22:07:24.345Z,7.72
2023-01-08T22:09:52.636Z,8.23
2023-01-08T22:12:22.767Z,8.10
2023-01-08T22:14:53.368Z,8.15
2023-01-08T22:17:24.280Z,8.50
2023-01-08T22:19:53.506Z,8.50
2023-01-08T22:22:21.752Z,7.53
2023-01-08T22:24:51.518Z,8.07
2023-01-08T22:27:19.696Z,8.48
2023-01-08T22:29:48.036Z,8.40
2023-01-08T22:32:16.262Z,8.40
2023-01-08T22:34:45.829Z,8.63
2023-01-08T22:37:14.052Z,8.32
2023-01-08T22:39:42.298Z,8.15
2023-01-08T22:42:10.520Z,8.82
2023-01-08T22:44:38.715Z,8.23
2023-01-08T22:47:09.930Z,8.00
2023-01-08T22:49:38.164Z,8.13
2023-01-08T22:52:08.883Z,7.93
2023-01-08T22:54:37.852Z,8.00
2023-01-08T22:57:06.080Z,7.88
2023-01-08T22:59:34.508Z,7.50
2023-01-08T23:02:02.700Z,8.77
2023-01-08T23:04:31.015Z,8.82
2023-01-08T23:06:59.068Z,8.45
2023-01-08T23:09:28.593Z,8.10
2023-01-08T23:11:57.272Z,8.10
2023-01-08T23:14:25.415Z,7.93
2023-01-08T23:16:53.552Z,7.75
2023-01-08T23:19:21.651Z,8.75
2023-01-08T23:21:49.741Z,8.38
2023-01-08T23:24:17.854Z,8.30
2023-01-08T23:26:47.323Z,8.25
2023-01-08T23:29:15.496Z,8.45
2023-01-08T23:31:44.329Z,7.68
2023-01-08T23:34:12.959Z,7.68
2023-01-08T23:36:42.975Z,7.53
2023-01-08T23:39:11.602Z,8.13
2023-01-08T23:41:40.272Z,7.70
2023-01-08T23:44:13.103Z,7.88
2023-01-08T23:46:41.230Z,7.65
2023-01-08T23:49:10.082Z,7.22
2023-01-08T23:51:42.157Z,7.78
2023-01-08T23:54:10.897Z,7.50
2023-01-08T23:56:39.249Z,7.95
2023-01-08T23:59:12.409Z,7.40
